createdAt,value
2023-12-12T00:01:26.527Z,93630.00
2023-12-12T00:03:53.734Z,93636.00
2023-12-12T00:06:20.804Z,93628.00
2023-12-12T00:08:50.035Z,93635.00
2023-12-12T00:11:17.015Z,93625.00
2023-12-12T00:13:46.220Z,93635.00
2023-12-12T00:16:15.259Z,93642.00
2023-12-12T00:18:42.997Z,93634.00
2023-12-12T00:21:12.669Z,93625.00
2023-12-12T00:23:41.670Z,93627.00
2023-12-12T00:26:13.535Z,93625.00
2023-12-12T00:28:41.311Z,93635.00
2023-12-12T00:31:08.354Z,93627.00
2023-12-12T00:33:37.781Z,93620.00
2023-12-12T00:36:08.191Z,93624.00
2023-12-12T00:38:35.077Z,93625.00
2023-12-12T00:41:05.282Z,93630.00
2023-12-12T00:43:32.440Z,93643.00
2023-12-12T00:45:59.447Z,93633.00
2023-12-12T00:48:27.518Z,93636.00
2023-12-12T00:50:56.946Z,93640.00
2023-12-12T00:53:26.859Z,93638.00
2023-12-12T00:55:53.841Z,93629.00
2023-12-12T00:58:20.781Z,93640.00
2023-12-12T01:00:47.670Z,93647.00
2023-12-12T01:03:14.666Z,93646.00
2023-12-12T01:05:41.691Z,93643.00
2023-12-12T01:08:10.751Z,93656.00
2023-12-12T01:10:42.233Z,93648.00
2023-12-12T01:13:09.141Z,93647.00
2023-12-12T01:15:38.443Z,93655.00
2023-12-12T01:18:05.940Z,93649.00
2023-12-12T01:20:32.961Z,93647.00
2023-12-12T01:22:59.827Z,93646.00
2023-12-12T01:25:32.403Z,93640.00
2023-12-12T01:28:02.303Z,93632.00
2023-12-12T01:30:29.162Z,93636.00
2023-12-12T01:32:58.187Z,93629.00
2023-12-12T01:35:25.110Z,93629.00
2023-12-12T01:37:54.560Z,93621.00
2023-12-12T01:40:21.564Z,93626.00
2023-12-12T01:42:48.440Z,93618.00
2023-12-12T01:45:19.846Z,93627.00
2023-12-12T01:47:50.491Z,93633.00
2023-12-12T01:50:17.655Z,93626.00
2023-12-12T01:52:47.054Z,93619.00
2023-12-12T01:55:14.328Z,93616.00
2023-12-12T01:57:43.565Z,93614.00
2023-12-12T02:00:11.826Z,93618.00
2023-12-12T02:02:41.721Z,93611.00
2023-12-12T02:05:13.910Z,93612.00
2023-12-12T02:07:44.634Z,93604.00
2023-12-12T02:10:16.115Z,93588.00
2023-12-12T02:12:45.630Z,93590.00
2023-12-12T02:15:12.576Z,93597.00
2023-12-12T02:17:39.645Z,93593.00
2023-12-12T02:20:13.756Z,93596.00
2023-12-12T02:22:40.649Z,93592.00
2023-12-12T02:25:08.624Z,93593.00
2023-12-12T02:27:41.057Z,93585.00
2023-12-12T02:30:08.505Z,93582.00
2023-12-12T02:32:35.693Z,93575.00
2023-12-12T02:35:03.116Z,93581.00
2023-12-12T02:37:30.319Z,93583.00
2023-12-12T02:39:57.394Z,93587.00
2023-12-12T02:42:26.536Z,93578.00
2023-12-12T02:44:58.075Z,93572.00
2023-12-12T02:47:24.894Z,93580.00
2023-12-12T02:49:51.998Z,93589.00
2023-12-12T02:52:22.189Z,93589.00
2023-12-12T02:54:56.186Z,93591.00
2023-12-12T02:57:26.576Z,93581.00
2023-12-12T02:59:53.507Z,93565.00
2023-12-12T03:02:22.533Z,93565.00
2023-12-12T03:04:51.861Z,93577.00
2023-12-12T03:07:20.909Z,93575.00
2023-12-12T03:09:50.908Z,93578.00
2023-12-12T03:12:18.184Z,93577.00
2023-12-12T03:14:45.412Z,93575.00
2023-12-12T03:17:12.353Z,93560.00
2023-12-12T03:19:43.970Z,93561.00
2023-12-12T03:22:13.234Z,93562.00
2023-12-12T03:24:44.722Z,93558.00
2023-12-12T03:27:11.646Z,93567.00
2023-12-12T03:29:39.364Z,93554.00
2023-12-12T03:32:08.778Z,93564.00
2023-12-12T03:34:38.276Z,93546.00
2023-12-12T03:37:05.329Z,93551.00
2023-12-12T03:39:36.712Z,93536.00
2023-12-12T03:42:06.291Z,93547.00
2023-12-12T03:44:33.178Z,93541.00
2023-12-12T03:47:00.091Z,93540.00
2023-12-12T03:49:27.072Z,93543.00
2023-12-12T03:51:56.277Z,93543.00
2023-12-12T03:54:23.179Z,93538.00
2023-12-12T03:56:56.297Z,93544.00
2023-12-12T03:59:23.212Z,93531.00
2023-12-12T04:01:50.553Z,93524.00
2023-12-12T04:04:22.948Z,93522.00
2023-12-12T04:06:50.037Z,93525.00
2023-12-12T04:09:17.131Z,93527.00
2023-12-12T04:11:44.194Z,93536.00
2023-12-12T04:14:14.156Z,93537.00
2023-12-12T04:16:41.343Z,93531.00
2023-12-12T04:19:08.570Z,93526.00
2023-12-12T04:21:35.637Z,93530.00
2023-12-12T04:24:02.550Z,93529.00
2023-12-12T04:26:33.087Z,93531.00
2023-12-12T04:29:07.566Z,93532.00
2023-12-12T04:31:34.624Z,93534.00
2023-12-12T04:34:04.181Z,93525.00
2023-12-12T04:36:31.196Z,93521.00
2023-12-12T04:38:58.108Z,93510.00
2023-12-12T04:41:27.575Z,93503.00
2023-12-12T04:43:54.513Z,93501.00
2023-12-12T04:46:22.113Z,93499.00
2023-12-12T04:48:49.609Z,93494.00
2023-12-12T04:51:16.723Z,93506.00
2023-12-12T04:53:43.639Z,93496.00
2023-12-12T04:56:12.909Z,93490.00
2023-12-12T04:58:39.799Z,93486.00
2023-12-12T05:01:07.729Z,93486.00
2023-12-12T05:03:34.876Z,93487.00
2023-12-12T05:06:04.485Z,93480.00
2023-12-12T05:08:31.459Z,93494.00
2023-12-12T05:10:58.360Z,93489.00
2023-12-12T05:13:25.420Z,93479.00
2023-12-12T05:15:52.651Z,93482.00
2023-12-12T05:18:19.886Z,93484.00
2023-12-12T05:20:47.380Z,93469.00
2023-12-12T05:23:14.324Z,93473.00
2023-12-12T05:25:41.524Z,93468.00
2023-12-12T05:28:11.124Z,93465.00
2023-12-12T05:30:43.230Z,93457.00
2023-12-12T05:33:10.256Z,93454.00
2023-12-12T05:35:39.586Z,93460.00
2023-12-12T05:38:08.072Z,93462.00
2023-12-12T05:40:37.590Z,93462.00
2023-12-12T05:43:06.897Z,93469.00
2023-12-12T05:45:38.786Z,93472.00
2023-12-12T05:48:06.007Z,93476.00
2023-12-12T05:50:35.395Z,93476.00
2023-12-12T05:53:02.282Z,93479.00
2023-12-12T05:55:30.248Z,93467.00
2023-12-12T05:57:59.483Z,93467.00
2023-12-12T06:00:29.084Z,93454.00
2023-12-12T06:02:59.090Z,93460.00
2023-12-12T06:05:26.190Z,93447.00
2023-12-12T06:07:58.206Z,93434.00
2023-12-12T06:10:25.466Z,93445.00
2023-12-12T06:12:52.613Z,93429.00
2023-12-12T06:15:22.128Z,93432.00
2023-12-12T06:17:49.186Z,93429.00
2023-12-12T06:20:16.391Z,93430.00
2023-12-12T06:22:43.384Z,93437.00
2023-12-12T06:25:10.466Z,93448.00
2023-12-12T06:27:39.715Z,93452.00
2023-12-12T06:30:07.500Z,93461.00
2023-12-12T06:32:34.767Z,93449.00
2023-12-12T06:35:01.876Z,93452.00
2023-12-12T06:37:29.039Z,93446.00
2023-12-12T06:39:56.251Z,93450.00
2023-12-12T06:42:23.183Z,93464.00
2023-12-12T06:44:50.050Z,93445.00
2023-12-12T06:47:19.751Z,93445.00
2023-12-12T06:49:49.162Z,93438.00
2023-12-12T06:52:21.482Z,93429.00
2023-12-12T06:54:51.001Z,93431.00
2023-12-12T06:57:17.889Z,93432.00
2023-12-12T06:59:47.786Z,93419.00
2023-12-12T07:02:15.555Z,93432.00
2023-12-12T07:04:43.016Z,93428.00
2023-12-12T07:07:13.099Z,93436.00
2023-12-12T07:09:40.341Z,93438.00
2023-12-12T07:12:07.651Z,93435.00
2023-12-12T07:14:34.613Z,93431.00
2023-12-12T07:17:01.484Z,93440.00
2023-12-12T07:19:29.610Z,93434.00
2023-12-12T07:21:59.129Z,93436.00
2023-12-12T07:24:26.085Z,93439.00
2023-12-12T07:26:53.007Z,93447.00
2023-12-12T07:29:20.914Z,93440.00
2023-12-12T07:31:47.971Z,93456.00
2023-12-12T07:34:19.636Z,93453.00
2023-12-12T07:36:51.009Z,93439.00
2023-12-12T07:39:18.043Z,93439.00
2023-12-12T07:41:44.987Z,93443.00
2023-12-12T07:44:11.936Z,93454.00
2023-12-12T07:46:39.445Z,93447.00
2023-12-12T07:49:10.670Z,93459.00
2023-12-12T07:51:40.291Z,93450.00
2023-12-12T07:54:07.639Z,93440.00
2023-12-12T07:56:34.645Z,93448.00
2023-12-12T07:59:04.310Z,93444.00
2023-12-12T08:01:39.738Z,93440.00
2023-12-12T08:04:07.445Z,93446.00
2023-12-12T08:06:39.093Z,93441.00
2023-12-12T08:09:06.227Z,93436.00
2023-12-12T08:11:38.047Z,93440.00
2023-12-12T08:14:05.075Z,93428.00
2023-12-12T08:16:32.497Z,93411.00
2023-12-12T08:18:59.641Z,93414.00
2023-12-12T08:21:31.850Z,93408.00
2023-12-12T08:23:58.879Z,93412.00
2023-12-12T08:26:25.766Z,93400.00
2023-12-12T08:28:56.656Z,93401.00
2023-12-12T08:31:26.293Z,93408.00
2023-12-12T08:33:53.377Z,93398.00
2023-12-12T08:36:22.489Z,93394.00
2023-12-12T08:38:52.725Z,93388.00
2023-12-12T08:41:19.657Z,93397.00
2023-12-12T08:43:46.590Z,93391.00
2023-12-12T08:46:16.121Z,93384.00
2023-12-12T08:48:45.995Z,93387.00
2023-12-12T08:51:15.154Z,93380.00
2023-12-12T08:53:42.116Z,93383.00
2023-12-12T08:56:18.531Z,93371.00
2023-12-12T08:58:49.505Z,93360.00
2023-12-12T09:01:17.880Z,93349.00
2023-12-12T09:03:46.017Z,93335.00
2023-12-12T09:06:15.697Z,93351.00
2023-12-12T09:08:43.668Z,93353.00
2023-12-12T09:11:15.148Z,93339.00
2023-12-12T09:13:46.356Z,93342.00
2023-12-12T09:16:13.479Z,93340.00
2023-12-12T09:18:40.496Z,93336.00
2023-12-12T09:21:08.058Z,93343.00
2023-12-12T09:23:35.878Z,93351.00
2023-12-12T09:26:07.460Z,93360.00
2023-12-12T09:28:36.845Z,93357.00
2023-12-12T09:31:04.108Z,93367.00
2023-12-12T09:33:36.372Z,93355.00
2023-12-12T09:36:07.215Z,93349.00
2023-12-12T09:38:34.115Z,93356.00
2023-12-12T09:41:04.586Z,93342.00
2023-12-12T09:43:34.021Z,93353.00
2023-12-12T09:46:02.791Z,93345.00
2023-12-12T09:48:29.844Z,93348.00
2023-12-12T09:51:00.092Z,93341.00
2023-12-12T09:53:31.948Z,93351.00
2023-12-12T09:56:05.107Z,93338.00
2023-12-12T09:58:34.680Z,93331.00
2023-12-12T10:01:05.276Z,93336.00
2023-12-12T10:03:38.053Z,93338.00
2023-12-12T10:06:10.772Z,93333.00
2023-12-12T10:08:43.670Z,93329.00
2023-12-12T10:11:11.563Z,93335.00
2023-12-12T10:13:58.258Z,93339.00
2023-12-12T10:16:28.812Z,93325.00
2023-12-12T10:19:02.690Z,93322.00
2023-12-12T10:21:30.135Z,93309.00
2023-12-12T10:23:57.739Z,93314.00
2023-12-12T10:26:28.069Z,93307.00
2023-12-12T10:28:58.158Z,93299.00
2023-12-12T10:31:32.867Z,93300.00
2023-12-12T10:34:00.061Z,93301.00
2023-12-12T10:36:31.852Z,93291.00
2023-12-12T10:39:16.964Z,93286.00
2023-12-12T10:41:56.406Z,93289.00
2023-12-12T10:44:34.750Z,93268.00
2023-12-12T10:47:06.634Z,93283.00
2023-12-12T10:49:37.555Z,93270.00
2023-12-12T10:52:11.524Z,93271.00
2023-12-12T10:54:43.528Z,93270.00
2023-12-12T10:57:14.327Z,93268.00
2023-12-12T10:59:59.149Z,93257.00
2023-12-12T11:02:34.152Z,93260.00
2023-12-12T11:05:04.661Z,93253.00
2023-12-12T11:07:37.250Z,93247.00
2023-12-12T11:10:14.731Z,93236.00
2023-12-12T11:12:49.887Z,93238.00
2023-12-12T11:15:18.409Z,93236.00
2023-12-12T11:17:46.968Z,93225.00
2023-12-12T11:20:16.147Z,93222.00
2023-12-12T11:22:46.430Z,93217.00
2023-12-12T11:25:22.993Z,93207.00
2023-12-12T11:27:55.412Z,93212.00
2023-12-12T11:30:33.755Z,93211.00
2023-12-12T11:33:03.155Z,93201.00
2023-12-12T11:35:34.740Z,93193.00
2023-12-12T11:38:05.780Z,93196.00
2023-12-12T11:40:36.304Z,93186.00
2023-12-12T11:43:26.145Z,93186.00
2023-12-12T11:45:56.232Z,93187.00
2023-12-12T11:48:27.618Z,93183.00
2023-12-12T11:50:55.863Z,93177.00
2023-12-12T11:53:40.767Z,93178.00
2023-12-12T11:56:08.083Z,93166.00
2023-12-12T11:58:36.227Z,93162.00
2023-12-12T12:01:03.322Z,93169.00
2023-12-12T12:03:30.419Z,93163.00
2023-12-12T12:06:04.559Z,93168.00
2023-12-12T12:08:33.861Z,93153.00
2023-12-12T12:11:05.664Z,93135.00
2023-12-12T12:13:43.192Z,93133.00
2023-12-12T12:16:11.377Z,93126.00
2023-12-12T12:18:41.591Z,93135.00
2023-12-12T12:21:09.258Z,93125.00
2023-12-12T12:23:44.574Z,93120.00
2023-12-12T12:26:11.489Z,93112.00
2023-12-12T12:28:38.572Z,93106.00
2023-12-12T12:31:06.880Z,93101.00
2023-12-12T12:33:37.505Z,93095.00
2023-12-12T12:36:08.688Z,93089.00
2023-12-12T12:38:35.860Z,93085.00
2023-12-12T12:41:03.074Z,93070.00
2023-12-12T12:43:30.150Z,93079.00
2023-12-12T12:46:08.032Z,93070.00
2023-12-12T12:48:39.753Z,93060.00
2023-12-12T12:51:07.138Z,93061.00
2023-12-12T12:53:39.193Z,93054.00
2023-12-12T12:56:10.381Z,93043.00
2023-12-12T12:58:41.842Z,93045.00
2023-12-12T13:01:09.551Z,93047.00
2023-12-12T13:03:36.551Z,93046.00
2023-12-12T13:06:04.154Z,93030.00
2023-12-12T13:08:31.322Z,93026.00
2023-12-12T13:11:00.653Z,93025.00
2023-12-12T13:13:35.303Z,93019.00
2023-12-12T13:16:02.547Z,93029.00
2023-12-12T13:18:30.804Z,93025.00
2023-12-12T13:20:57.736Z,93007.00
2023-12-12T13:23:26.925Z,93016.00
2023-12-12T13:26:07.995Z,92992.00
2023-12-12T13:28:35.848Z,92986.00
2023-12-12T13:31:05.178Z,92981.00
2023-12-12T13:33:34.569Z,92977.00
2023-12-12T13:36:05.887Z,92994.00
2023-12-12T13:38:32.822Z,92993.00
2023-12-12T13:41:03.376Z,92994.00
2023-12-12T13:43:35.279Z,92998.00
2023-12-12T13:46:02.234Z,93008.00
2023-12-12T13:48:33.897Z,93011.00
2023-12-12T13:51:06.696Z,93007.00
2023-12-12T13:53:37.332Z,93012.00
2023-12-12T13:56:07.228Z,93001.00
2023-12-12T13:58:34.200Z,93003.00
2023-12-12T14:01:01.273Z,93002.00
2023-12-12T14:03:32.748Z,92992.00
2023-12-12T14:05:59.601Z,92996.00
2023-12-12T14:08:26.710Z,93000.00
2023-12-12T14:10:53.649Z,92994.00
2023-12-12T14:13:20.631Z,92999.00
2023-12-12T14:15:50.032Z,92999.00
2023-12-12T14:18:19.503Z,93001.00
2023-12-12T14:20:49.216Z,93001.00
2023-12-12T14:23:22.918Z,93003.00
2023-12-12T14:25:49.920Z,92999.00
2023-12-12T14:28:16.939Z,92990.00
2023-12-12T14:30:49.045Z,92983.00
2023-12-12T14:33:20.775Z,92976.00
2023-12-12T14:35:50.727Z,92982.00
2023-12-12T14:38:18.878Z,92969.00
2023-12-12T14:40:49.023Z,92975.00
2023-12-12T14:43:16.145Z,92981.00
2023-12-12T14:45:45.699Z,92985.00
2023-12-12T14:48:15.734Z,92991.00
2023-12-12T14:50:42.895Z,92984.00
2023-12-12T14:53:09.895Z,92980.00
2023-12-12T14:55:36.874Z,92992.00
2023-12-12T14:58:04.377Z,92999.00
2023-12-12T15:00:31.394Z,92996.00
2023-12-12T15:02:58.389Z,92992.00
2023-12-12T15:05:27.607Z,92991.00
2023-12-12T15:07:54.949Z,92985.00
2023-12-12T15:10:21.995Z,92961.00
2023-12-12T15:12:51.662Z,92968.00
2023-12-12T15:15:18.586Z,92958.00
2023-12-12T15:17:48.610Z,92960.00
2023-12-12T15:20:16.812Z,92945.00
2023-12-12T15:22:43.861Z,92938.00
2023-12-12T15:25:11.827Z,92938.00
2023-12-12T15:27:39.154Z,92923.00
2023-12-12T15:30:07.311Z,92928.00
2023-12-12T15:32:34.957Z,92922.00
2023-12-12T15:35:07.755Z,92927.00
2023-12-12T15:37:34.807Z,92938.00
2023-12-12T15:40:04.125Z,92934.00
2023-12-12T15:42:33.757Z,92926.00
2023-12-12T15:45:05.502Z,92926.00
2023-12-12T15:47:32.324Z,92924.00
2023-12-12T15:50:05.084Z,92934.00
2023-12-12T15:52:32.285Z,92919.00
2023-12-12T15:54:59.368Z,92926.00
2023-12-12T15:57:28.607Z,92912.00
2023-12-12T15:59:57.637Z,92934.00
2023-12-12T16:02:24.652Z,92932.00
2023-12-12T16:04:51.627Z,92939.00
2023-12-12T16:07:22.637Z,92926.00
2023-12-12T16:09:49.674Z,92933.00
2023-12-12T16:12:16.643Z,92936.00
2023-12-12T16:14:46.073Z,92929.00
2023-12-12T16:17:17.509Z,92922.00
2023-12-12T16:19:46.960Z,92924.00
2023-12-12T16:22:16.475Z,92923.00
2023-12-12T16:24:45.908Z,92881.00
2023-12-12T16:27:15.799Z,92904.00
2023-12-12T16:29:42.696Z,92924.00
2023-12-12T16:32:10.161Z,92914.00
2023-12-12T16:34:39.384Z,92901.00
2023-12-12T16:37:09.946Z,92913.00
2023-12-12T16:39:37.484Z,92912.00
2023-12-12T16:42:09.007Z,92919.00
2023-12-12T16:44:36.170Z,92916.00
2023-12-12T16:47:03.374Z,92913.00
2023-12-12T16:49:32.848Z,92918.00
2023-12-12T16:52:02.367Z,92916.00
2023-12-12T16:54:29.276Z,92901.00
2023-12-12T16:57:03.205Z,92896.00
2023-12-12T16:59:32.401Z,92891.00
2023-12-12T17:02:01.486Z,92899.00
2023-12-12T17:04:29.842Z,92895.00
2023-12-12T17:07:04.807Z,92908.00
2023-12-12T17:09:36.420Z,92917.00
2023-12-12T17:12:05.413Z,92918.00
2023-12-12T17:14:32.378Z,92900.00
2023-12-12T17:17:02.788Z,92921.00
2023-12-12T17:19:29.880Z,92920.00
2023-12-12T17:21:56.808Z,92919.00
2023-12-12T17:24:26.263Z,92920.00
2023-12-12T17:26:58.189Z,92907.00
2023-12-12T17:29:28.134Z,92916.00
2023-12-12T17:31:58.021Z,92912.00
2023-12-12T17:34:25.103Z,92915.00
2023-12-12T17:36:57.242Z,92923.00
2023-12-12T17:39:24.223Z,92930.00
2023-12-12T17:41:53.622Z,92932.00
2023-12-12T17:44:20.493Z,92941.00
2023-12-12T17:46:47.562Z,92937.00
2023-12-12T17:49:14.750Z,92930.00
2023-12-12T17:51:43.932Z,92915.00
2023-12-12T17:54:13.360Z,92916.00
2023-12-12T17:56:43.249Z,92903.00
2023-12-12T17:59:12.443Z,92888.00
2023-12-12T18:01:39.475Z,92876.00
2023-12-12T18:04:06.722Z,92876.00
2023-12-12T18:06:39.791Z,92884.00
2023-12-12T18:09:08.833Z,92853.00
2023-12-12T18:11:35.733Z,92873.00
2023-12-12T18:14:05.657Z,92875.00
2023-12-12T18:16:32.676Z,92878.00
2023-12-12T18:18:59.754Z,92883.00
2023-12-12T18:21:26.765Z,92899.00
2023-12-12T18:23:53.767Z,92910.00
2023-12-12T18:26:21.072Z,92919.00
2023-12-12T18:28:48.441Z,92912.00
2023-12-12T18:31:16.262Z,92911.00
2023-12-12T18:33:47.943Z,92912.00
2023-12-12T18:36:19.709Z,92894.00
2023-12-12T18:38:46.588Z,92902.00
2023-12-12T18:41:14.363Z,92897.00
2023-12-12T18:43:46.612Z,92888.00
2023-12-12T18:46:16.963Z,92879.00
2023-12-12T18:48:46.768Z,92885.00
2023-12-12T18:51:18.313Z,92884.00
2023-12-12T18:53:47.444Z,92876.00
2023-12-12T18:56:15.946Z,92875.00
2023-12-12T18:58:47.930Z,92863.00
2023-12-12T19:01:19.466Z,92843.00
2023-12-12T19:03:48.920Z,92857.00
2023-12-12T19:06:20.896Z,92866.00
2023-12-12T19:08:47.830Z,92871.00
2023-12-12T19:11:15.893Z,92881.00
2023-12-12T19:13:42.957Z,92890.00
2023-12-12T19:16:11.180Z,92872.00
2023-12-12T19:18:38.855Z,92857.00
2023-12-12T19:21:06.713Z,92862.00
2023-12-12T19:23:36.336Z,92853.00
2023-12-12T19:26:04.455Z,92858.00
2023-12-12T19:28:33.936Z,92852.00
2023-12-12T19:31:05.610Z,92847.00
2023-12-12T19:33:32.887Z,92843.00
2023-12-12T19:35:59.879Z,92843.00
2023-12-12T19:38:27.102Z,92847.00
2023-12-12T19:40:54.153Z,92865.00
2023-12-12T19:43:22.386Z,92863.00
2023-12-12T19:45:49.473Z,92858.00
2023-12-12T19:48:18.749Z,92863.00
2023-12-12T19:50:45.714Z,92851.00
2023-12-12T19:53:12.617Z,92855.00
2023-12-12T19:55:41.806Z,92849.00
2023-12-12T19:58:13.483Z,92848.00
2023-12-12T20:00:42.865Z,92855.00
2023-12-12T20:03:14.365Z,92842.00
2023-12-12T20:05:41.181Z,92840.00
2023-12-12T20:08:08.442Z,92833.00
2023-12-12T20:10:39.978Z,92839.00
2023-12-12T20:13:08.622Z,92845.00
2023-12-12T20:15:37.877Z,92852.00
2023-12-12T20:18:08.038Z,92845.00
2023-12-12T20:20:37.166Z,92838.00
2023-12-12T20:23:11.209Z,92841.00
2023-12-12T20:25:38.291Z,92837.00
2023-12-12T20:28:06.706Z,92839.00
2023-12-12T20:30:36.156Z,92841.00
2023-12-12T20:33:09.286Z,92856.00
2023-12-12T20:35:36.254Z,92848.00
2023-12-12T20:38:03.088Z,92842.00
2023-12-12T20:40:32.613Z,92832.00
2023-12-12T20:42:59.629Z,92852.00
2023-12-12T20:45:31.865Z,92838.00
2023-12-12T20:48:01.897Z,92828.00
2023-12-12T20:50:28.890Z,92828.00
2023-12-12T20:52:55.761Z,92820.00
2023-12-12T20:55:27.374Z,92830.00
2023-12-12T20:57:57.562Z,92823.00
2023-12-12T21:00:28.818Z,92829.00
2023-12-12T21:02:58.901Z,92834.00
2023-12-12T21:05:28.073Z,92826.00
2023-12-12T21:07:55.192Z,92825.00
2023-12-12T21:10:24.444Z,92827.00
2023-12-12T21:12:51.593Z,92830.00
2023-12-12T21:15:19.143Z,92826.00
2023-12-12T21:17:50.834Z,92820.00
2023-12-12T21:20:19.063Z,92820.00
2023-12-12T21:22:51.044Z,92822.00
2023-12-12T21:25:18.648Z,92829.00
2023-12-12T21:27:50.150Z,92830.00
2023-12-12T21:30:19.386Z,92830.00
2023-12-12T21:32:48.582Z,92814.00
2023-12-12T21:35:15.886Z,92806.00
2023-12-12T21:37:47.661Z,92816.00
2023-12-12T21:40:19.969Z,92813.00
2023-12-12T21:42:49.216Z,92803.00
2023-12-12T21:45:18.994Z,92806.00
2023-12-12T21:47:47.202Z,92795.00
2023-12-12T21:50:14.326Z,92802.00
2023-12-12T21:52:44.180Z,92809.00
2023-12-12T21:55:13.432Z,92808.00
2023-12-12T21:57:40.446Z,92805.00
2023-12-12T22:00:11.205Z,92802.00
2023-12-12T22:02:40.643Z,92815.00
2023-12-12T22:05:08.541Z,92817.00
2023-12-12T22:07:35.697Z,92816.00
2023-12-12T22:10:04.018Z,92813.00
2023-12-12T22:12:31.024Z,92817.00
2023-12-12T22:15:00.170Z,92812.00
2023-12-12T22:17:27.173Z,92812.00
2023-12-12T22:20:02.508Z,92824.00
2023-12-12T22:22:36.954Z,92821.00
2023-12-12T22:25:04.188Z,92848.00
2023-12-12T22:27:31.366Z,92856.00
2023-12-12T22:29:58.468Z,92869.00
2023-12-12T22:32:25.412Z,92876.00
2023-12-12T22:34:54.915Z,92876.00
2023-12-12T22:37:21.977Z,92883.00
2023-12-12T22:39:49.328Z,92894.00
2023-12-12T22:42:16.276Z,92886.00
2023-12-12T22:44:43.234Z,92884.00
2023-12-12T22:47:13.287Z,92881.00
2023-12-12T22:49:42.748Z,92883.00
2023-12-12T22:52:10.210Z,92886.00
2023-12-12T22:54:37.184Z,92876.00
2023-12-12T22:57:07.303Z,92887.00
2023-12-12T22:59:36.423Z,92882.00
2023-12-12T23:02:05.948Z,92880.00
2023-12-12T23:04:37.380Z,92879.00
2023-12-12T23:07:06.532Z,92876.00
2023-12-12T23:09:33.567Z,92884.00
2023-12-12T23:12:03.531Z,92895.00
2023-12-12T23:14:33.330Z,92886.00
2023-12-12T23:17:01.249Z,92884.00
2023-12-12T23:19:35.217Z,92883.00
2023-12-12T23:22:04.482Z,92874.00
2023-12-12T23:24:32.344Z,92858.00
2023-12-12T23:26:59.295Z,92853.00
2023-12-12T23:29:28.636Z,92852.00
2023-12-12T23:31:55.629Z,92850.00
2023-12-12T23:34:22.679Z,92847.00
2023-12-12T23:36:54.367Z,92830.00
2023-12-12T23:39:21.334Z,92843.00
2023-12-12T23:41:50.882Z,92843.00
2023-12-12T23:44:18.006Z,92841.00
2023-12-12T23:46:50.242Z,92839.00
2023-12-12T23:49:21.841Z,92835.00
2023-12-12T23:51:49.836Z,92832.00
2023-12-12T23:54:16.844Z,92826.00
2023-12-12T23:56:47.790Z,92833.00
2023-12-12T23:59:15.423Z,92829.00
